sensor_id;sensor_type;location;lat;lon;timestamp;pressure;altitude;pressure_sealevel;temperature;humidity
36192;BME280;22233;42.708;23.360;2023-10-13T00:00:33;95922.47;;;15.12;58.07
36192;BME280;22233;42.708;23.360;2023-10-13T00:03:09;95920.19;;;15.14;58.12
36192;BME280;22233;42.708;23.360;2023-10-13T00:05:44;95923.22;;;14.92;58.61
36192;BME280;22233;42.708;23.360;2023-10-13T00:08:11;95908.03;;;15.03;58.42
36192;BME280;22233;42.708;23.360;2023-10-13T00:10:38;95920.56;;;15.04;58.09
36192;BME280;22233;42.708;23.360;2023-10-13T00:13:04;95915.16;;;14.95;58.61
36192;BME280;22233;42.708;23.360;2023-10-13T00:15:42;95913.06;;;14.92;58.79
36192;BME280;22233;42.708;23.360;2023-10-13T00:18:33;95913.84;;;14.93;58.91
36192;BME280;22233;42.708;23.360;2023-10-13T00:21:02;95910.00;;;14.94;58.49
36192;BME280;22233;42.708;23.360;2023-10-13T00:23:58;95912.69;;;15.03;58.26
36192;BME280;22233;42.708;23.360;2023-10-13T00:26:29;95909.47;;;15.01;58.52
36192;BME280;22233;42.708;23.360;2023-10-13T00:29:03;95902.44;;;14.91;59.23
36192;BME280;22233;42.708;23.360;2023-10-13T00:31:44;95905.47;;;14.98;58.54
36192;BME280;22233;42.708;23.360;2023-10-13T00:34:14;95911.13;;;14.93;58.50
36192;BME280;22233;42.708;23.360;2023-10-13T00:36:46;95900.28;;;14.67;59.43
36192;BME280;22233;42.708;23.360;2023-10-13T00:39:37;95904.19;;;14.48;59.94
36192;BME280;22233;42.708;23.360;2023-10-13T00:42:07;95912.94;;;14.07;61.08
36192;BME280;22233;42.708;23.360;2023-10-13T00:44:45;95923.22;;;14.18;61.05
36192;BME280;22233;42.708;23.360;2023-10-13T00:47:16;95904.53;;;14.38;60.44
36192;BME280;22233;42.708;23.360;2023-10-13T00:49:47;95909.47;;;14.53;59.61
36192;BME280;22233;42.708;23.360;2023-10-13T00:52:19;95914.00;;;14.49;59.93
36192;BME280;22233;42.708;23.360;2023-10-13T00:54:47;95910.31;;;14.45;59.81
36192;BME280;22233;42.708;23.360;2023-10-13T00:57:15;95921.09;;;14.42;60.56
36192;BME280;22233;42.708;23.360;2023-10-13T00:59:56;95925.28;;;14.30;60.44
36192;BME280;22233;42.708;23.360;2023-10-13T01:02:37;95904.59;;;13.86;61.50
36192;BME280;22233;42.708;23.360;2023-10-13T01:05:07;95917.59;;;13.97;61.20
36192;BME280;22233;42.708;23.360;2023-10-13T01:07:39;95897.69;;;13.88;61.75
36192;BME280;22233;42.708;23.360;2023-10-13T01:10:11;95918.28;;;13.94;61.48
36192;BME280;22233;42.708;23.360;2023-10-13T01:12:41;95925.47;;;14.08;61.47
36192;BME280;22233;42.708;23.360;2023-10-13T01:15:11;95920.63;;;14.22;60.58
36192;BME280;22233;42.708;23.360;2023-10-13T01:17:40;95919.03;;;14.12;60.61
36192;BME280;22233;42.708;23.360;2023-10-13T01:20:05;95923.22;;;14.10;61.17
36192;BME280;22233;42.708;23.360;2023-10-13T01:22:33;95920.97;;;13.86;61.88
36192;BME280;22233;42.708;23.360;2023-10-13T01:24:59;95931.75;;;13.99;60.80
36192;BME280;22233;42.708;23.360;2023-10-13T01:27:41;95913.75;;;13.90;60.98
36192;BME280;22233;42.708;23.360;2023-10-13T01:30:07;95916.50;;;13.98;61.25
36192;BME280;22233;42.708;23.360;2023-10-13T01:32:41;95914.22;;;13.92;60.92
36192;BME280;22233;42.708;23.360;2023-10-13T01:35:09;95919.53;;;13.79;62.02
36192;BME280;22233;42.708;23.360;2023-10-13T01:37:35;95927.56;;;13.93;61.08
36192;BME280;22233;42.708;23.360;2023-10-13T01:40:01;95934.94;;;14.10;60.86
36192;BME280;22233;42.708;23.360;2023-10-13T01:42:26;95919.53;;;13.71;61.45
36192;BME280;22233;42.708;23.360;2023-10-13T01:44:56;95933.34;;;13.83;61.59
36192;BME280;22233;42.708;23.360;2023-10-13T01:47:31;95933.97;;;14.06;60.75
36192;BME280;22233;42.708;23.360;2023-10-13T01:49:59;95934.00;;;13.97;61.24
36192;BME280;22233;42.708;23.360;2023-10-13T01:52:41;95927.72;;;13.79;61.38
36192;BME280;22233;42.708;23.360;2023-10-13T01:55:10;95935.59;;;13.81;61.14
36192;BME280;22233;42.708;23.360;2023-10-13T01:57:38;95911.50;;;13.83;61.31
36192;BME280;22233;42.708;23.360;2023-10-13T02:00:12;95922.44;;;13.74;61.68
36192;BME280;22233;42.708;23.360;2023-10-13T02:02:47;95929.81;;;13.91;61.19
36192;BME280;22233;42.708;23.360;2023-10-13T02:05:40;95924.38;;;13.83;61.00
36192;BME280;22233;42.708;23.360;2023-10-13T02:08:16;95924.34;;;13.74;61.01
36192;BME280;22233;42.708;23.360;2023-10-13T02:10:52;95915.53;;;13.68;61.15
36192;BME280;22233;42.708;23.360;2023-10-13T02:13:27;95919.03;;;13.86;60.53
36192;BME280;22233;42.708;23.360;2023-10-13T02:15:56;95905.72;;;13.67;61.32
36192;BME280;22233;42.708;23.360;2023-10-13T02:18:23;95920.50;;;13.84;61.20
36192;BME280;22233;42.708;23.360;2023-10-13T02:21:07;95918.25;;;13.68;61.24
36192;BME280;22233;42.708;23.360;2023-10-13T02:23:46;95928.22;;;13.73;61.52
36192;BME280;22233;42.708;23.360;2023-10-13T02:26:25;95923.56;;;13.73;61.21
36192;BME280;22233;42.708;23.360;2023-10-13T02:29:01;95923.72;;;13.77;60.85
36192;BME280;22233;42.708;23.360;2023-10-13T02:31:30;95916.31;;;13.60;61.68
36192;BME280;22233;42.708;23.360;2023-10-13T02:33:55;95911.81;;;13.55;61.14
36192;BME280;22233;42.708;23.360;2023-10-13T02:36:24;95910.69;;;13.56;61.30
36192;BME280;22233;42.708;23.360;2023-10-13T02:39:05;95911.63;;;13.52;61.84
36192;BME280;22233;42.708;23.360;2023-10-13T02:41:36;95929.16;;;13.51;61.96
36192;BME280;22233;42.708;23.360;2023-10-13T02:44:06;95922.25;;;13.45;61.80
36192;BME280;22233;42.708;23.360;2023-10-13T02:46:35;95924.63;;;13.37;61.53
36192;BME280;22233;42.708;23.360;2023-10-13T02:49:20;95935.13;;;13.04;62.85
36192;BME280;22233;42.708;23.360;2023-10-13T02:51:45;95937.47;;;12.88;63.48
36192;BME280;22233;42.708;23.360;2023-10-13T02:54:11;95934.88;;;12.52;64.00
36192;BME280;22233;42.708;23.360;2023-10-13T02:56:46;95926.75;;;12.61;64.36
36192;BME280;22233;42.708;23.360;2023-10-13T02:59:31;95927.44;;;12.75;63.50
36192;BME280;22233;42.708;23.360;2023-10-13T03:02:04;95934.38;;;12.81;63.33
36192;BME280;22233;42.708;23.360;2023-10-13T03:04:51;95937.13;;;12.05;65.96
36192;BME280;22233;42.708;23.360;2023-10-13T03:07:16;95951.63;;;12.36;64.61
36192;BME280;22233;42.708;23.360;2023-10-13T03:09:51;95943.19;;;12.24;65.42
36192;BME280;22233;42.708;23.360;2023-10-13T03:12:18;95942.81;;;12.17;65.11
36192;BME280;22233;42.708;23.360;2023-10-13T03:14:44;95937.03;;;12.10;66.10
36192;BME280;22233;42.708;23.360;2023-10-13T03:17:13;95952.63;;;12.18;65.51
36192;BME280;22233;42.708;23.360;2023-10-13T03:19:53;95933.38;;;11.92;66.03
36192;BME280;22233;42.708;23.360;2023-10-13T03:22:20;95943.03;;;11.98;65.77
36192;BME280;22233;42.708;23.360;2023-10-13T03:24:55;95939.31;;;12.16;65.23
36192;BME280;22233;42.708;23.360;2023-10-13T03:27:26;95943.56;;;12.09;65.50
36192;BME280;22233;42.708;23.360;2023-10-13T03:30:06;95935.34;;;12.00;66.10
36192;BME280;22233;42.708;23.360;2023-10-13T03:32:41;95940.28;;;12.21;66.24
36192;BME280;22233;42.708;23.360;2023-10-13T03:35:21;95937.81;;;12.33;64.39
36192;BME280;22233;42.708;23.360;2023-10-13T03:37:51;95943.97;;;12.47;64.59
36192;BME280;22233;42.708;23.360;2023-10-13T03:40:17;95935.34;;;12.23;64.41
36192;BME280;22233;42.708;23.360;2023-10-13T03:45:33;95934.50;;;12.45;64.03
36192;BME280;22233;42.708;23.360;2023-10-13T03:48:07;95922.84;;;12.53;64.14
36192;BME280;22233;42.708;23.360;2023-10-13T03:50:59;95921.16;;;12.66;63.39
36192;BME280;22233;42.708;23.360;2023-10-13T03:53:41;95913.72;;;12.57;63.93
36192;BME280;22233;42.708;23.360;2023-10-13T03:56:22;95912.09;;;12.48;64.63
36192;BME280;22233;42.708;23.360;2023-10-13T03:59:04;95915.41;;;12.36;64.96
36192;BME280;22233;42.708;23.360;2023-10-13T04:01:42;95910.69;;;12.59;64.43
36192;BME280;22233;42.708;23.360;2023-10-13T04:04:16;95913.38;;;12.50;64.46
36192;BME280;22233;42.708;23.360;2023-10-13T04:06:56;95909.22;;;12.53;64.13
36192;BME280;22233;42.708;23.360;2023-10-13T04:09:40;95916.84;;;12.73;63.73
36192;BME280;22233;42.708;23.360;2023-10-13T04:12:09;95912.16;;;12.65;63.96
36192;BME280;22233;42.708;23.360;2023-10-13T04:14:40;95899.59;;;12.15;65.14
36192;BME280;22233;42.708;23.360;2023-10-13T04:17:40;95909.16;;;12.35;64.90
36192;BME280;22233;42.708;23.360;2023-10-13T04:20:24;95911.53;;;12.37;64.55
36192;BME280;22233;42.708;23.360;2023-10-13T04:23:07;95914.06;;;12.33;64.88
36192;BME280;22233;42.708;23.360;2023-10-13T04:26:05;95918.16;;;12.45;64.71
36192;BME280;22233;42.708;23.360;2023-10-13T04:28:47;95921.09;;;12.26;64.45
36192;BME280;22233;42.708;23.360;2023-10-13T04:31:18;95932.69;;;12.09;65.45
36192;BME280;22233;42.708;23.360;2023-10-13T04:34:09;95926.66;;;12.21;64.06
36192;BME280;22233;42.708;23.360;2023-10-13T04:36:50;95932.31;;;12.02;64.75
36192;BME280;22233;42.708;23.360;2023-10-13T04:39:22;95937.19;;;11.91;65.83
36192;BME280;22233;42.708;23.360;2023-10-13T04:42:00;95925.88;;;11.61;66.89
36192;BME280;22233;42.708;23.360;2023-10-13T04:44:46;95925.59;;;11.49;65.66
36192;BME280;22233;42.708;23.360;2023-10-13T04:47:26;95952.63;;;11.45;67.53
36192;BME280;22233;42.708;23.360;2023-10-13T04:49:54;95933.22;;;11.60;66.59
36192;BME280;22233;42.708;23.360;2023-10-13T04:52:26;95947.75;;;11.56;67.29
36192;BME280;22233;42.708;23.360;2023-10-13T04:55:04;95936.03;;;11.33;66.51
36192;BME280;22233;42.708;23.360;2023-10-13T04:57:43;95949.03;;;11.58;66.77
36192;BME280;22233;42.708;23.360;2023-10-13T05:00:40;95959.13;;;11.58;66.30
36192;BME280;22233;42.708;23.360;2023-10-13T05:03:34;95939.91;;;11.40;67.21
36192;BME280;22233;42.708;23.360;2023-10-13T05:06:30;95968.38;;;11.71;66.10
36192;BME280;22233;42.708;23.360;2023-10-13T05:09:13;95965.38;;;11.58;66.53
36192;BME280;22233;42.708;23.360;2023-10-13T05:11:57;95973.13;;;11.65;67.01
36192;BME280;22233;42.708;23.360;2023-10-13T05:14:41;95959.91;;;11.72;65.37
36192;BME280;22233;42.708;23.360;2023-10-13T05:17:25;95981.31;;;11.65;66.57
36192;BME280;22233;42.708;23.360;2023-10-13T05:20:09;95980.56;;;11.73;66.12
36192;BME280;22233;42.708;23.360;2023-10-13T05:22:55;95983.22;;;12.01;65.74
36192;BME280;22233;42.708;23.360;2023-10-13T05:25:39;95992.34;;;11.83;66.31
36192;BME280;22233;42.708;23.360;2023-10-13T05:28:23;95984.78;;;11.79;66.57
36192;BME280;22233;42.708;23.360;2023-10-13T05:31:08;95994.81;;;12.07;65.48
36192;BME280;22233;42.708;23.360;2023-10-13T05:33:55;95985.09;;;12.14;65.75
36192;BME280;22233;42.708;23.360;2023-10-13T05:36:40;95986.84;;;13.27;67.98
36192;BME280;22233;42.708;23.360;2023-10-13T05:39:25;96002.91;;;14.38;66.90
36192;BME280;22233;42.708;23.360;2023-10-13T05:42:18;96000.78;;;15.34;60.75
36192;BME280;22233;42.708;23.360;2023-10-13T05:45:02;95989.22;;;15.88;58.57
36192;BME280;22233;42.708;23.360;2023-10-13T05:47:56;96003.88;;;16.34;56.31
36192;BME280;22233;42.708;23.360;2023-10-13T05:50:37;95988.94;;;16.77;55.40
36192;BME280;22233;42.708;23.360;2023-10-13T05:53:22;95997.91;;;16.87;53.81
36192;BME280;22233;42.708;23.360;2023-10-13T05:56:09;96012.09;;;16.89;52.71
36192;BME280;22233;42.708;23.360;2023-10-13T05:58:53;96015.41;;;16.61;53.48
36192;BME280;22233;42.708;23.360;2023-10-13T06:01:37;96013.38;;;16.16;53.79
36192;BME280;22233;42.708;23.360;2023-10-13T06:04:26;96009.53;;;15.87;55.10
36192;BME280;22233;42.708;23.360;2023-10-13T06:07:23;96018.50;;;15.28;56.37
36192;BME280;22233;42.708;23.360;2023-10-13T06:10:08;96014.34;;;15.22;56.70
36192;BME280;22233;42.708;23.360;2023-10-13T06:12:58;96006.50;;;15.12;57.11
36192;BME280;22233;42.708;23.360;2023-10-13T06:15:42;96013.53;;;14.66;58.41
36192;BME280;22233;42.708;23.360;2023-10-13T06:18:26;96014.66;;;14.73;58.79
36192;BME280;22233;42.708;23.360;2023-10-13T06:21:09;96028.63;;;14.54;59.13
36192;BME280;22233;42.708;23.360;2023-10-13T06:23:56;96038.59;;;14.50;59.18
36192;BME280;22233;42.708;23.360;2023-10-13T06:26:40;96032.19;;;14.29;60.30
36192;BME280;22233;42.708;23.360;2023-10-13T06:29:25;96022.22;;;14.15;60.34
36192;BME280;22233;42.708;23.360;2023-10-13T06:31:50;96030.59;;;14.19;60.38
36192;BME280;22233;42.708;23.360;2023-10-13T06:34:16;96030.91;;;14.17;60.34
36192;BME280;22233;42.708;23.360;2023-10-13T06:36:46;96035.22;;;14.01;60.61
36192;BME280;22233;42.708;23.360;2023-10-13T06:39:13;96037.34;;;14.13;60.65
36192;BME280;22233;42.708;23.360;2023-10-13T06:42:12;96039.91;;;14.35;60.50
36192;BME280;22233;42.708;23.360;2023-10-13T06:44:37;96040.38;;;14.03;61.52
36192;BME280;22233;42.708;23.360;2023-10-13T06:47:05;96033.63;;;14.26;60.08
36192;BME280;22233;42.708;23.360;2023-10-13T06:49:30;96039.72;;;14.32;60.76
36192;BME280;22233;42.708;23.360;2023-10-13T06:52:05;96039.41;;;14.42;60.89
36192;BME280;22233;42.708;23.360;2023-10-13T06:54:40;96022.53;;;14.49;59.79
36192;BME280;22233;42.708;23.360;2023-10-13T06:57:06;96037.97;;;14.53;59.84
36192;BME280;22233;42.708;23.360;2023-10-13T06:59:58;96017.25;;;14.61;60.13
36192;BME280;22233;42.708;23.360;2023-10-13T07:02:33;96009.19;;;14.56;60.24
36192;BME280;22233;42.708;23.360;2023-10-13T07:04:59;96007.28;;;14.65;60.21
36192;BME280;22233;42.708;23.360;2023-10-13T07:07:43;96005.31;;;14.74;59.81
36192;BME280;22233;42.708;23.360;2023-10-13T07:10:14;96000.34;;;14.68;59.62
36192;BME280;22233;42.708;23.360;2023-10-13T07:12:43;96014.91;;;14.98;59.19
36192;BME280;22233;42.708;23.360;2023-10-13T07:15:11;96011.94;;;15.21;58.70
36192;BME280;22233;42.708;23.360;2023-10-13T07:17:46;96017.50;;;15.33;58.08
36192;BME280;22233;42.708;23.360;2023-10-13T07:20:12;96023.38;;;15.52;58.26
36192;BME280;22233;42.708;23.360;2023-10-13T07:22:42;96025.88;;;15.75;57.74
36192;BME280;22233;42.708;23.360;2023-10-13T07:25:20;96011.03;;;15.46;58.84
36192;BME280;22233;42.708;23.360;2023-10-13T07:27:51;96013.94;;;15.71;58.16
36192;BME280;22233;42.708;23.360;2023-10-13T07:30:19;96007.69;;;16.00;57.56
36192;BME280;22233;42.708;23.360;2023-10-13T07:32:54;96010.16;;;16.14;57.15
36192;BME280;22233;42.708;23.360;2023-10-13T07:35:24;96005.81;;;16.13;57.42
36192;BME280;22233;42.708;23.360;2023-10-13T07:37:52;96003.59;;;16.27;57.63
36192;BME280;22233;42.708;23.360;2023-10-13T07:40:25;96004.38;;;16.49;57.23
36192;BME280;22233;42.708;23.360;2023-10-13T07:42:51;96002.09;;;16.51;56.56
36192;BME280;22233;42.708;23.360;2023-10-13T07:45:17;95998.06;;;16.69;56.47
36192;BME280;22233;42.708;23.360;2023-10-13T07:47:56;95984.59;;;16.76;55.35
36192;BME280;22233;42.708;23.360;2023-10-13T07:50:26;95992.13;;;17.13;55.07
36192;BME280;22233;42.708;23.360;2023-10-13T07:52:51;95991.81;;;17.14;54.93
36192;BME280;22233;42.708;23.360;2023-10-13T07:55:35;95994.09;;;17.12;54.91
36192;BME280;22233;42.708;23.360;2023-10-13T07:58:04;95986.97;;;17.11;54.38
36192;BME280;22233;42.708;23.360;2023-10-13T08:00:34;95990.44;;;17.45;53.77
36192;BME280;22233;42.708;23.360;2023-10-13T08:03:08;95992.38;;;17.69;53.49
36192;BME280;22233;42.708;23.360;2023-10-13T08:05:54;95980.13;;;17.91;53.08
36192;BME280;22233;42.708;23.360;2023-10-13T08:08:33;95985.81;;;18.11;53.21
36192;BME280;22233;42.708;23.360;2023-10-13T08:11:09;95983.13;;;18.27;51.69
36192;BME280;22233;42.708;23.360;2023-10-13T08:16:25;95989.97;;;18.33;51.52
36192;BME280;22233;42.708;23.360;2023-10-13T08:19:14;95993.09;;;18.31;51.26
36192;BME280;22233;42.708;23.360;2023-10-13T08:21:46;95986.59;;;18.24;51.86
36192;BME280;22233;42.708;23.360;2023-10-13T08:24:36;95978.69;;;18.22;51.15
36192;BME280;22233;42.708;23.360;2023-10-13T08:27:07;96000.13;;;18.16;52.08
36192;BME280;22233;42.708;23.360;2023-10-13T08:29:51;95994.31;;;18.46;50.85
36192;BME280;22233;42.708;23.360;2023-10-13T08:32:28;95993.69;;;18.53;51.47
36192;BME280;22233;42.708;23.360;2023-10-13T08:34:59;95988.66;;;18.83;51.07
36192;BME280;22233;42.708;23.360;2023-10-13T08:37:36;95978.84;;;19.14;50.38
36192;BME280;22233;42.708;23.360;2023-10-13T08:40:28;95965.34;;;19.41;50.00
36192;BME280;22233;42.708;23.360;2023-10-13T08:43:32;95979.47;;;19.71;48.91
36192;BME280;22233;42.708;23.360;2023-10-13T08:46:10;95973.75;;;19.80;48.75
36192;BME280;22233;42.708;23.360;2023-10-13T08:48:56;95982.06;;;19.32;49.70
36192;BME280;22233;42.708;23.360;2023-10-13T08:51:44;95981.44;;;19.54;49.14
36192;BME280;22233;42.708;23.360;2023-10-13T08:54:35;95984.53;;;19.69;48.75
36192;BME280;22233;42.708;23.360;2023-10-13T08:57:37;95970.53;;;19.93;48.42
36192;BME280;22233;42.708;23.360;2023-10-13T09:00:04;95962.81;;;20.19;48.21
36192;BME280;22233;42.708;23.360;2023-10-13T09:02:54;95970.59;;;20.32;47.76
36192;BME280;22233;42.708;23.360;2023-10-13T09:05:46;95962.88;;;20.42;47.70
36192;BME280;22233;42.708;23.360;2023-10-13T09:08:30;95968.56;;;20.68;47.15
36192;BME280;22233;42.708;23.360;2023-10-13T09:11:09;95966.09;;;20.83;46.70
36192;BME280;22233;42.708;23.360;2023-10-13T09:13:38;95943.63;;;20.84;46.33
36192;BME280;22233;42.708;23.360;2023-10-13T09:16:11;95959.59;;;21.18;45.87
36192;BME280;22233;42.708;23.360;2023-10-13T09:19:01;95961.94;;;21.15;45.43
36192;BME280;22233;42.708;23.360;2023-10-13T09:21:38;95966.13;;;21.29;45.33
36192;BME280;22233;42.708;23.360;2023-10-13T09:24:16;95950.28;;;21.49;45.58
36192;BME280;22233;42.708;23.360;2023-10-13T09:26:51;95939.28;;;21.52;44.54
36192;BME280;22233;42.708;23.360;2023-10-13T09:29:22;95940.03;;;21.76;44.53
36192;BME280;22233;42.708;23.360;2023-10-13T09:31:59;95944.91;;;21.86;44.17
36192;BME280;22233;42.708;23.360;2023-10-13T09:34:27;95938.56;;;22.12;43.60
36192;BME280;22233;42.708;23.360;2023-10-13T09:37:16;95938.19;;;22.14;42.88
36192;BME280;22233;42.708;23.360;2023-10-13T09:39:49;95935.75;;;22.09;43.42
36192;BME280;22233;42.708;23.360;2023-10-13T09:42:18;95928.91;;;22.29;43.34
36192;BME280;22233;42.708;23.360;2023-10-13T09:44:46;95930.63;;;22.38;42.49
36192;BME280;22233;42.708;23.360;2023-10-13T09:47:28;95919.41;;;22.27;42.64
36192;BME280;22233;42.708;23.360;2023-10-13T09:50:08;95919.66;;;22.18;43.38
36192;BME280;22233;42.708;23.360;2023-10-13T09:52:55;95913.03;;;22.57;42.86
36192;BME280;22233;42.708;23.360;2023-10-13T09:55:31;95913.94;;;22.68;41.89
36192;BME280;22233;42.708;23.360;2023-10-13T09:58:16;95911.50;;;23.00;41.98
36192;BME280;22233;42.708;23.360;2023-10-13T10:00:56;95907.59;;;23.05;41.42
36192;BME280;22233;42.708;23.360;2023-10-13T10:03:51;95893.38;;;23.10;41.22
36192;BME280;22233;42.708;23.360;2023-10-13T10:06:32;95887.59;;;23.26;41.15
36192;BME280;22233;42.708;23.360;2023-10-13T10:09:09;95901.25;;;23.52;40.65
36192;BME280;22233;42.708;23.360;2023-10-13T10:18:19;95888.06;;;23.94;40.06
36192;BME280;22233;42.708;23.360;2023-10-13T10:20:48;95885.28;;;23.94;40.00
36192;BME280;22233;42.708;23.360;2023-10-13T10:23:31;95887.91;;;24.49;38.87
36192;BME280;22233;42.708;23.360;2023-10-13T10:26:15;95876.88;;;24.78;38.61
36192;BME280;22233;42.708;23.360;2023-10-13T10:28:48;95857.03;;;24.87;37.98
36192;BME280;22233;42.708;23.360;2023-10-13T10:31:14;95871.38;;;25.25;37.59
36192;BME280;22233;42.708;23.360;2023-10-13T10:33:42;95872.97;;;25.55;37.50
36192;BME280;22233;42.708;23.360;2023-10-13T10:36:08;95877.31;;;25.70;36.73
36192;BME280;22233;42.708;23.360;2023-10-13T10:38:53;95864.56;;;25.94;36.22
36192;BME280;22233;42.708;23.360;2023-10-13T10:41:27;95869.66;;;26.14;35.80
36192;BME280;22233;42.708;23.360;2023-10-13T10:44:16;95872.50;;;25.96;35.32
36192;BME280;22233;42.708;23.360;2023-10-13T10:46:46;95871.63;;;26.20;34.70
36192;BME280;22233;42.708;23.360;2023-10-13T10:49:22;95868.78;;;26.31;34.61
36192;BME280;22233;42.708;23.360;2023-10-13T10:52:00;95864.31;;;26.51;33.51
36192;BME280;22233;42.708;23.360;2023-10-13T10:54:27;95857.16;;;26.58;34.13
36192;BME280;22233;42.708;23.360;2023-10-13T10:57:09;95857.38;;;26.85;33.79
36192;BME280;22233;42.708;23.360;2023-10-13T11:00:18;95847.00;;;26.93;33.19
36192;BME280;22233;42.708;23.360;2023-10-13T11:02:56;95860.19;;;26.85;32.67
36192;BME280;22233;42.708;23.360;2023-10-13T11:05:22;95857.75;;;26.90;33.04
36192;BME280;22233;42.708;23.360;2023-10-13T11:08:08;95839.78;;;26.99;32.87
36192;BME280;22233;42.708;23.360;2023-10-13T11:10:46;95843.50;;;27.30;32.32
36192;BME280;22233;42.708;23.360;2023-10-13T11:13:11;95833.88;;;27.38;31.99
36192;BME280;22233;42.708;23.360;2023-10-13T11:15:52;95834.63;;;27.42;31.64
36192;BME280;22233;42.708;23.360;2023-10-13T11:18:29;95833.66;;;27.63;31.94
36192;BME280;22233;42.708;23.360;2023-10-13T11:21:06;95836.44;;;27.63;31.50
36192;BME280;22233;42.708;23.360;2023-10-13T11:23:33;95827.16;;;27.32;31.33
36192;BME280;22233;42.708;23.360;2023-10-13T11:26:03;95805.16;;;27.41;31.45
36192;BME280;22233;42.708;23.360;2023-10-13T11:28:31;95808.97;;;27.96;30.61
36192;BME280;22233;42.708;23.360;2023-10-13T11:31:00;95825.09;;;28.46;30.70
36192;BME280;22233;42.708;23.360;2023-10-13T11:33:27;95810.72;;;28.48;30.60
36192;BME280;22233;42.708;23.360;2023-10-13T11:35:58;95814.22;;;28.56;29.71
36192;BME280;22233;42.708;23.360;2023-10-13T11:38:30;95817.31;;;28.61;29.24
36192;BME280;22233;42.708;23.360;2023-10-13T11:41:15;95806.41;;;28.71;28.54
36192;BME280;22233;42.708;23.360;2023-10-13T11:44:05;95808.75;;;28.45;28.70
36192;BME280;22233;42.708;23.360;2023-10-13T11:46:37;95815.50;;;28.78;28.58
36192;BME280;22233;42.708;23.360;2023-10-13T11:49:12;95804.56;;;28.87;28.51
36192;BME280;22233;42.708;23.360;2023-10-13T11:51:56;95804.56;;;28.60;28.71
36192;BME280;22233;42.708;23.360;2023-10-13T11:54:41;95805.34;;;28.61;28.46
36192;BME280;22233;42.708;23.360;2023-10-13T11:57:09;95804.41;;;28.98;28.05
36192;BME280;22233;42.708;23.360;2023-10-13T11:59:34;95782.25;;;29.07;27.82
36192;BME280;22233;42.708;23.360;2023-10-13T12:02:07;95789.41;;;29.12;27.65
36192;BME280;22233;42.708;23.360;2023-10-13T12:04:36;95784.13;;;29.18;27.43
36192;BME280;22233;42.708;23.360;2023-10-13T12:07:14;95787.53;;;29.29;27.70
36192;BME280;22233;42.708;23.360;2023-10-13T12:09:44;95779.38;;;29.15;27.53
36192;BME280;22233;42.708;23.360;2023-10-13T12:12:26;95782.91;;;29.42;27.60
36192;BME280;22233;42.708;23.360;2023-10-13T12:14:55;95774.72;;;29.52;27.35
36192;BME280;22233;42.708;23.360;2023-10-13T12:17:26;95773.00;;;29.58;27.30
36192;BME280;22233;42.708;23.360;2023-10-13T12:20:02;95781.03;;;29.79;26.85
36192;BME280;22233;42.708;23.360;2023-10-13T12:22:34;95780.00;;;29.90;26.26
36192;BME280;22233;42.708;23.360;2023-10-13T12:25:19;95777.72;;;29.84;26.34
36192;BME280;22233;42.708;23.360;2023-10-13T12:28:12;95765.50;;;29.31;26.71
36192;BME280;22233;42.708;23.360;2023-10-13T12:30:50;95777.44;;;29.99;26.84
36192;BME280;22233;42.708;23.360;2023-10-13T12:33:19;95765.44;;;29.35;27.26
36192;BME280;22233;42.708;23.360;2023-10-13T12:36:02;95775.31;;;29.63;27.04
36192;BME280;22233;42.708;23.360;2023-10-13T12:38:47;95776.06;;;29.87;26.76
36192;BME280;22233;42.708;23.360;2023-10-13T12:41:19;95767.03;;;29.79;27.38
36192;BME280;22233;42.708;23.360;2023-10-13T12:44:04;95761.00;;;30.01;26.82
36192;BME280;22233;42.708;23.360;2023-10-13T12:46:52;95758.03;;;30.08;25.99
36192;BME280;22233;42.708;23.360;2023-10-13T12:49:36;95766.56;;;30.21;26.07
36192;BME280;22233;42.708;23.360;2023-10-13T12:52:16;95763.34;;;30.22;25.69
36192;BME280;22233;42.708;23.360;2023-10-13T12:54:45;95760.03;;;30.07;25.68
36192;BME280;22233;42.708;23.360;2023-10-13T12:57:16;95765.69;;;30.44;25.54
36192;BME280;22233;42.708;23.360;2023-10-13T12:59:42;95758.06;;;30.44;25.55
36192;BME280;22233;42.708;23.360;2023-10-13T13:02:08;95759.03;;;30.54;25.81
36192;BME280;22233;42.708;23.360;2023-10-13T13:04:40;95759.97;;;30.31;25.10
36192;BME280;22233;42.708;23.360;2023-10-13T13:07:09;95753.63;;;30.63;25.36
36192;BME280;22233;42.708;23.360;2023-10-13T13:09:40;95764.06;;;30.63;25.22
36192;BME280;22233;42.708;23.360;2023-10-13T13:12:06;95754.88;;;30.79;25.45
36192;BME280;22233;42.708;23.360;2023-10-13T13:14:32;95743.81;;;30.72;25.02
36192;BME280;22233;42.708;23.360;2023-10-13T13:17:01;95747.84;;;30.71;24.99
36192;BME280;22233;42.708;23.360;2023-10-13T13:19:38;95751.88;;;30.53;25.99
36192;BME280;22233;42.708;23.360;2023-10-13T13:22:08;95749.91;;;30.50;25.52
36192;BME280;22233;42.708;23.360;2023-10-13T13:24:42;95757.03;;;30.55;25.25
36192;BME280;22233;42.708;23.360;2023-10-13T13:27:17;95751.31;;;30.58;24.99
36192;BME280;22233;42.708;23.360;2023-10-13T13:29:45;95741.97;;;30.49;24.96
36192;BME280;22233;42.708;23.360;2023-10-13T13:32:12;95755.88;;;30.69;25.59
36192;BME280;22233;42.708;23.360;2023-10-13T13:34:55;95757.56;;;30.82;24.85
36192;BME280;22233;42.708;23.360;2023-10-13T13:37:35;95759.47;;;30.89;25.07
36192;BME280;22233;42.708;23.360;2023-10-13T13:40:06;95737.38;;;30.91;25.55
36192;BME280;22233;42.708;23.360;2023-10-13T13:42:49;95756.34;;;31.16;25.56
36192;BME280;22233;42.708;23.360;2023-10-13T13:45:18;95748.47;;;30.95;26.14
36192;BME280;22233;42.708;23.360;2023-10-13T13:48:11;95758.69;;;30.69;26.27
36192;BME280;22233;42.708;23.360;2023-10-13T13:50:40;95754.88;;;30.79;25.92